sensor_id;sensor_type;location;lat;lon;timestamp;P1;durP1;ratioP1;P2;durP2;ratioP2
20022;SDS011;10172;42.054;24.546;2022-09-14T00:00:51;2.95;;;1.80;;
20022;SDS011;10172;42.054;24.546;2022-09-14T00:03:17;1.95;;;1.30;;
20022;SDS011;10172;42.054;24.546;2022-09-14T00:05:43;1.50;;;1.33;;
20022;SDS011;10172;42.054;24.546;2022-09-14T00:08:09;1.20;;;1.10;;
20022;SDS011;10172;42.054;24.546;2022-09-14T00:10:42;2.20;;;1.52;;
20022;SDS011;10172;42.054;24.546;2022-09-14T00:13:09;2.90;;;1.40;;
20022;SDS011;10172;42.054;24.546;2022-09-14T00:15:39;2.00;;;1.27;;
20022;SDS011;10172;42.054;24.546;2022-09-14T00:18:06;2.00;;;1.30;;
20022;SDS011;10172;42.054;24.546;2022-09-14T00:20:34;2.13;;;1.25;;
20022;SDS011;10172;42.054;24.546;2022-09-14T00:22:59;1.70;;;1.40;;
20022;SDS011;10172;42.054;24.546;2022-09-14T00:25:26;2.25;;;1.42;;
20022;SDS011;10172;42.054;24.546;2022-09-14T00:27:52;1.30;;;1.20;;
20022;SDS011;10172;42.054;24.546;2022-09-14T00:30:18;2.22;;;1.42;;
20022;SDS011;10172;42.054;24.546;2022-09-14T00:32:44;1.20;;;1.10;;
20022;SDS011;10172;42.054;24.546;2022-09-14T00:35:10;1.88;;;1.20;;
20022;SDS011;10172;42.054;24.546;2022-09-14T00:37:35;1.30;;;1.20;;
20022;SDS011;10172;42.054;24.546;2022-09-14T00:40:02;1.13;;;1.02;;
20022;SDS011;10172;42.054;24.546;2022-09-14T00:42:29;1.48;;;1.13;;
20022;SDS011;10172;42.054;24.546;2022-09-14T00:44:58;3.60;;;1.30;;
20022;SDS011;10172;42.054;24.546;2022-09-14T00:47:28;1.58;;;1.13;;
20022;SDS011;10172;42.054;24.546;2022-09-14T00:49:56;2.15;;;1.10;;
20022;SDS011;10172;42.054;24.546;2022-09-14T00:52:25;1.27;;;1.13;;
20022;SDS011;10172;42.054;24.546;2022-09-14T00:54:58;3.08;;;1.40;;
20022;SDS011;10172;42.054;24.546;2022-09-14T00:57:27;1.15;;;1.05;;
20022;SDS011;10172;42.054;24.546;2022-09-14T00:59:55;1.88;;;1.17;;
20022;SDS011;10172;42.054;24.546;2022-09-14T01:02:22;1.80;;;1.27;;
20022;SDS011;10172;42.054;24.546;2022-09-14T01:04:49;1.20;;;1.10;;
20022;SDS011;10172;42.054;24.546;2022-09-14T01:12:30;1.67;;;1.30;;
20022;SDS011;10172;42.054;24.546;2022-09-14T01:18:17;1.30;;;1.02;;
20022;SDS011;10172;42.054;24.546;2022-09-14T01:21:04;1.52;;;1.20;;
20022;SDS011;10172;42.054;24.546;2022-09-14T01:28:49;1.50;;;1.00;;
20022;SDS011;10172;42.054;24.546;2022-09-14T01:31:42;1.30;;;1.10;;
20022;SDS011;10172;42.054;24.546;2022-09-14T01:37:29;1.40;;;1.20;;
20022;SDS011;10172;42.054;24.546;2022-09-14T01:40:28;1.45;;;1.27;;
20022;SDS011;10172;42.054;24.546;2022-09-14T01:43:42;6.15;;;1.52;;
20022;SDS011;10172;42.054;24.546;2022-09-14T01:45:58;1.38;;;1.27;;
20022;SDS011;10172;42.054;24.546;2022-09-14T01:48:33;1.65;;;1.20;;
20022;SDS011;10172;42.054;24.546;2022-09-14T01:51:05;1.95;;;1.38;;
20022;SDS011;10172;42.054;24.546;2022-09-14T01:53:39;1.85;;;1.25;;
20022;SDS011;10172;42.054;24.546;2022-09-14T02:01:46;1.88;;;1.27;;
20022;SDS011;10172;42.054;24.546;2022-09-14T02:04:21;1.35;;;1.10;;
20022;SDS011;10172;42.054;24.546;2022-09-14T02:06:53;1.20;;;0.82;;
20022;SDS011;10172;42.054;24.546;2022-09-14T02:09:20;1.52;;;0.90;;
20022;SDS011;10172;42.054;24.546;2022-09-14T02:11:50;1.20;;;1.10;;
20022;SDS011;10172;42.054;24.546;2022-09-14T02:14:17;1.60;;;1.17;;
20022;SDS011;10172;42.054;24.546;2022-09-14T02:16:43;1.25;;;1.05;;
20022;SDS011;10172;42.054;24.546;2022-09-14T02:19:10;2.33;;;1.30;;
20022;SDS011;10172;42.054;24.546;2022-09-14T02:21:37;1.23;;;1.05;;
20022;SDS011;10172;42.054;24.546;2022-09-14T02:24:04;1.70;;;1.10;;
20022;SDS011;10172;42.054;24.546;2022-09-14T02:26:30;1.27;;;1.10;;
20022;SDS011;10172;42.054;24.546;2022-09-14T02:28:56;2.88;;;1.17;;
20022;SDS011;10172;42.054;24.546;2022-09-14T02:36:38;0.98;;;0.75;;
20022;SDS011;10172;42.054;24.546;2022-09-14T02:39:12;1.55;;;1.10;;
20022;SDS011;10172;42.054;24.546;2022-09-14T02:41:54;1.13;;;1.02;;
20022;SDS011;10172;42.054;24.546;2022-09-14T02:44:34;1.20;;;1.10;;
20022;SDS011;10172;42.054;24.546;2022-09-14T02:52:35;2.05;;;1.23;;
20022;SDS011;10172;42.054;24.546;2022-09-14T02:55:20;1.17;;;0.95;;
20022;SDS011;10172;42.054;24.546;2022-09-14T03:00:24;1.45;;;1.00;;
20022;SDS011;10172;42.054;24.546;2022-09-14T03:02:51;0.75;;;0.73;;
20022;SDS011;10172;42.054;24.546;2022-09-14T03:05:16;1.58;;;0.95;;
20022;SDS011;10172;42.054;24.546;2022-09-14T03:07:42;1.42;;;1.10;;
20022;SDS011;10172;42.054;24.546;2022-09-14T03:10:07;1.17;;;1.08;;
20022;SDS011;10172;42.054;24.546;2022-09-14T03:12:33;2.35;;;1.00;;
20022;SDS011;10172;42.054;24.546;2022-09-14T03:14:58;1.38;;;1.10;;
20022;SDS011;10172;42.054;24.546;2022-09-14T03:17:24;1.10;;;1.00;;
20022;SDS011;10172;42.054;24.546;2022-09-14T03:19:49;2.00;;;1.40;;
20022;SDS011;10172;42.054;24.546;2022-09-14T03:22:15;2.03;;;1.33;;
20022;SDS011;10172;42.054;24.546;2022-09-14T03:24:40;1.20;;;1.10;;
20022;SDS011;10172;42.054;24.546;2022-09-14T03:27:06;1.20;;;1.10;;
20022;SDS011;10172;42.054;24.546;2022-09-14T03:29:31;1.05;;;0.95;;
20022;SDS011;10172;42.054;24.546;2022-09-14T03:31:57;1.00;;;0.90;;
20022;SDS011;10172;42.054;24.546;2022-09-14T03:34:22;1.60;;;1.05;;
20022;SDS011;10172;42.054;24.546;2022-09-14T03:36:48;1.30;;;1.00;;
20022;SDS011;10172;42.054;24.546;2022-09-14T03:39:13;1.33;;;0.90;;
20022;SDS011;10172;42.054;24.546;2022-09-14T03:41:38;1.95;;;1.02;;
20022;SDS011;10172;42.054;24.546;2022-09-14T03:44:04;1.83;;;1.15;;
20022;SDS011;10172;42.054;24.546;2022-09-14T03:46:29;1.10;;;0.98;;
20022;SDS011;10172;42.054;24.546;2022-09-14T03:48:55;1.73;;;1.30;;
20022;SDS011;10172;42.054;24.546;2022-09-14T03:51:20;1.10;;;1.00;;
20022;SDS011;10172;42.054;24.546;2022-09-14T03:53:47;1.92;;;1.08;;
20022;SDS011;10172;42.054;24.546;2022-09-14T03:56:15;1.40;;;1.00;;
20022;SDS011;10172;42.054;24.546;2022-09-14T03:58:42;1.25;;;1.05;;
20022;SDS011;10172;42.054;24.546;2022-09-14T04:01:09;0.70;;;0.70;;
20022;SDS011;10172;42.054;24.546;2022-09-14T04:03:38;1.55;;;1.10;;
20022;SDS011;10172;42.054;24.546;2022-09-14T04:06:04;1.30;;;0.95;;
20022;SDS011;10172;42.054;24.546;2022-09-14T04:08:31;1.08;;;0.88;;
20022;SDS011;10172;42.054;24.546;2022-09-14T04:10:58;1.15;;;0.90;;
20022;SDS011;10172;42.054;24.546;2022-09-14T04:13:24;1.17;;;0.68;;
20022;SDS011;10172;42.054;24.546;2022-09-14T04:15:57;1.05;;;0.85;;
20022;SDS011;10172;42.054;24.546;2022-09-14T04:18:23;0.95;;;0.80;;
20022;SDS011;10172;42.054;24.546;2022-09-14T04:20:53;1.92;;;1.00;;
20022;SDS011;10172;42.054;24.546;2022-09-14T04:23:22;0.90;;;0.80;;
20022;SDS011;10172;42.054;24.546;2022-09-14T04:25:48;0.70;;;0.70;;
20022;SDS011;10172;42.054;24.546;2022-09-14T04:28:13;1.88;;;1.00;;
20022;SDS011;10172;42.054;24.546;2022-09-14T04:30:39;0.60;;;0.57;;
20022;SDS011;10172;42.054;24.546;2022-09-14T04:33:04;2.17;;;1.10;;
20022;SDS011;10172;42.054;24.546;2022-09-14T04:35:30;6.63;;;2.40;;
20022;SDS011;10172;42.054;24.546;2022-09-14T04:37:55;2.50;;;1.73;;
20022;SDS011;10172;42.054;24.546;2022-09-14T04:40:20;3.05;;;1.85;;
20022;SDS011;10172;42.054;24.546;2022-09-14T04:42:46;4.15;;;2.20;;
20022;SDS011;10172;42.054;24.546;2022-09-14T04:45:12;3.20;;;2.20;;
20022;SDS011;10172;42.054;24.546;2022-09-14T04:47:37;2.22;;;1.70;;
20022;SDS011;10172;42.054;24.546;2022-09-14T04:50:03;2.88;;;1.63;;
20022;SDS011;10172;42.054;24.546;2022-09-14T04:52:29;1.60;;;1.30;;
20022;SDS011;10172;42.054;24.546;2022-09-14T04:54:55;1.95;;;1.38;;
20022;SDS011;10172;42.054;24.546;2022-09-14T04:57:20;4.38;;;1.88;;
20022;SDS011;10172;42.054;24.546;2022-09-14T04:59:45;2.40;;;1.52;;
20022;SDS011;10172;42.054;24.546;2022-09-14T05:02:11;3.38;;;1.77;;
20022;SDS011;10172;42.054;24.546;2022-09-14T05:04:36;3.92;;;1.55;;
20022;SDS011;10172;42.054;24.546;2022-09-14T05:07:02;2.20;;;1.38;;
20022;SDS011;10172;42.054;24.546;2022-09-14T05:09:28;3.63;;;1.52;;
20022;SDS011;10172;42.054;24.546;2022-09-14T05:11:53;2.28;;;1.67;;
20022;SDS011;10172;42.054;24.546;2022-09-14T05:14:18;2.95;;;1.75;;
20022;SDS011;10172;42.054;24.546;2022-09-14T05:16:45;2.05;;;1.58;;
20022;SDS011;10172;42.054;24.546;2022-09-14T05:19:15;1.98;;;1.50;;
20022;SDS011;10172;42.054;24.546;2022-09-14T05:21:42;1.85;;;1.50;;
20022;SDS011;10172;42.054;24.546;2022-09-14T05:24:15;3.00;;;1.77;;
20022;SDS011;10172;42.054;24.546;2022-09-14T05:26:42;2.88;;;1.88;;
20022;SDS011;10172;42.054;24.546;2022-09-14T05:29:11;3.22;;;1.90;;
20022;SDS011;10172;42.054;24.546;2022-09-14T05:31:41;4.57;;;2.10;;
20022;SDS011;10172;42.054;24.546;2022-09-14T05:34:07;3.53;;;2.20;;
20022;SDS011;10172;42.054;24.546;2022-09-14T05:36:34;3.95;;;2.10;;
20022;SDS011;10172;42.054;24.546;2022-09-14T05:39:00;2.28;;;1.85;;
20022;SDS011;10172;42.054;24.546;2022-09-14T05:41:26;2.63;;;1.67;;
20022;SDS011;10172;42.054;24.546;2022-09-14T05:43:51;5.28;;;1.90;;
20022;SDS011;10172;42.054;24.546;2022-09-14T05:46:17;3.20;;;2.00;;
20022;SDS011;10172;42.054;24.546;2022-09-14T05:48:46;3.30;;;1.55;;
20022;SDS011;10172;42.054;24.546;2022-09-14T05:51:16;4.93;;;1.83;;
20022;SDS011;10172;42.054;24.546;2022-09-14T05:53:47;2.33;;;1.75;;
20022;SDS011;10172;42.054;24.546;2022-09-14T05:56:14;2.88;;;1.90;;
20022;SDS011;10172;42.054;24.546;2022-09-14T05:58:40;2.10;;;1.55;;
20022;SDS011;10172;42.054;24.546;2022-09-14T06:01:13;8.50;;;2.05;;
20022;SDS011;10172;42.054;24.546;2022-09-14T06:03:38;5.13;;;1.70;;
20022;SDS011;10172;42.054;24.546;2022-09-14T06:06:07;3.08;;;1.75;;
20022;SDS011;10172;42.054;24.546;2022-09-14T06:08:33;2.28;;;1.60;;
20022;SDS011;10172;42.054;24.546;2022-09-14T06:11:11;3.17;;;1.48;;
20022;SDS011;10172;42.054;24.546;2022-09-14T06:13:41;3.03;;;1.52;;
20022;SDS011;10172;42.054;24.546;2022-09-14T06:16:08;1.63;;;1.30;;
20022;SDS011;10172;42.054;24.546;2022-09-14T06:18:39;3.42;;;2.05;;
20022;SDS011;10172;42.054;24.546;2022-09-14T06:21:05;2.28;;;1.60;;
20022;SDS011;10172;42.054;24.546;2022-09-14T06:23:32;3.97;;;1.77;;
20022;SDS011;10172;42.054;24.546;2022-09-14T06:25:59;3.17;;;2.13;;
20022;SDS011;10172;42.054;24.546;2022-09-14T06:28:26;3.53;;;1.98;;
20022;SDS011;10172;42.054;24.546;2022-09-14T06:30:52;6.50;;;3.78;;
20022;SDS011;10172;42.054;24.546;2022-09-14T06:33:18;8.32;;;4.13;;
20022;SDS011;10172;42.054;24.546;2022-09-14T06:35:55;3.88;;;2.60;;
20022;SDS011;10172;42.054;24.546;2022-09-14T06:38:29;3.30;;;1.98;;
20022;SDS011;10172;42.054;24.546;2022-09-14T06:40:58;2.08;;;1.67;;
20022;SDS011;10172;42.054;24.546;2022-09-14T06:43:26;2.00;;;1.50;;
20022;SDS011;10172;42.054;24.546;2022-09-14T06:46:01;1.73;;;1.58;;
20022;SDS011;10172;42.054;24.546;2022-09-14T06:48:31;2.88;;;1.63;;
20022;SDS011;10172;42.054;24.546;2022-09-14T06:50:59;2.70;;;1.48;;
20022;SDS011;10172;42.054;24.546;2022-09-14T06:53:34;4.78;;;1.60;;
20022;SDS011;10172;42.054;24.546;2022-09-14T06:55:59;2.88;;;1.48;;
20022;SDS011;10172;42.054;24.546;2022-09-14T06:58:25;3.00;;;1.80;;
20022;SDS011;10172;42.054;24.546;2022-09-14T07:00:50;2.97;;;1.73;;
20022;SDS011;10172;42.054;24.546;2022-09-14T07:03:16;4.00;;;2.22;;
20022;SDS011;10172;42.054;24.546;2022-09-14T07:05:41;2.20;;;1.73;;
20022;SDS011;10172;42.054;24.546;2022-09-14T07:08:07;2.60;;;1.80;;
20022;SDS011;10172;42.054;24.546;2022-09-14T07:10:32;1.98;;;1.50;;
20022;SDS011;10172;42.054;24.546;2022-09-14T07:12:58;1.88;;;1.40;;
20022;SDS011;10172;42.054;24.546;2022-09-14T07:15:24;1.63;;;1.23;;
20022;SDS011;10172;42.054;24.546;2022-09-14T07:17:50;1.35;;;1.20;;
20022;SDS011;10172;42.054;24.546;2022-09-14T07:20:15;1.67;;;1.08;;
20022;SDS011;10172;42.054;24.546;2022-09-14T07:22:41;1.30;;;0.90;;
20022;SDS011;10172;42.054;24.546;2022-09-14T07:25:07;1.88;;;1.15;;
20022;SDS011;10172;42.054;24.546;2022-09-14T07:27:33;1.23;;;1.08;;
20022;SDS011;10172;42.054;24.546;2022-09-14T07:29:59;2.30;;;1.27;;
20022;SDS011;10172;42.054;24.546;2022-09-14T07:32:24;1.45;;;1.20;;
20022;SDS011;10172;42.054;24.546;2022-09-14T07:34:50;1.27;;;0.90;;
20022;SDS011;10172;42.054;24.546;2022-09-14T07:37:15;1.00;;;0.85;;
20022;SDS011;10172;42.054;24.546;2022-09-14T07:39:40;1.17;;;1.00;;
20022;SDS011;10172;42.054;24.546;2022-09-14T07:42:06;2.03;;;1.20;;
20022;SDS011;10172;42.054;24.546;2022-09-14T07:44:32;3.50;;;1.13;;
20022;SDS011;10172;42.054;24.546;2022-09-14T07:46:57;1.48;;;1.13;;
20022;SDS011;10172;42.054;24.546;2022-09-14T07:49:23;1.20;;;1.02;;
20022;SDS011;10172;42.054;24.546;2022-09-14T07:51:48;2.65;;;1.20;;
20022;SDS011;10172;42.054;24.546;2022-09-14T07:54:14;1.42;;;1.00;;
20022;SDS011;10172;42.054;24.546;2022-09-14T07:56:41;1.75;;;1.20;;
20022;SDS011;10172;42.054;24.546;2022-09-14T07:59:11;1.25;;;1.10;;
20022;SDS011;10172;42.054;24.546;2022-09-14T08:01:38;3.08;;;1.77;;
20022;SDS011;10172;42.054;24.546;2022-09-14T08:04:03;4.95;;;1.58;;
20022;SDS011;10172;42.054;24.546;2022-09-14T08:06:30;1.55;;;1.08;;
20022;SDS011;10172;42.054;24.546;2022-09-14T08:08:56;2.25;;;1.35;;
20022;SDS011;10172;42.054;24.546;2022-09-14T08:11:26;1.60;;;1.27;;
20022;SDS011;10172;42.054;24.546;2022-09-14T08:13:54;1.77;;;0.80;;
20022;SDS011;10172;42.054;24.546;2022-09-14T08:16:22;1.90;;;1.00;;
20022;SDS011;10172;42.054;24.546;2022-09-14T08:18:55;3.00;;;0.93;;
20022;SDS011;10172;42.054;24.546;2022-09-14T08:21:22;1.10;;;0.95;;
20022;SDS011;10172;42.054;24.546;2022-09-14T08:23:49;0.88;;;0.77;;
20022;SDS011;10172;42.054;24.546;2022-09-14T08:26:15;4.53;;;1.30;;
20022;SDS011;10172;42.054;24.546;2022-09-14T08:28:45;5.07;;;1.35;;
20022;SDS011;10172;42.054;24.546;2022-09-14T08:31:13;5.22;;;2.30;;
20022;SDS011;10172;42.054;24.546;2022-09-14T08:33:44;2.97;;;1.63;;
20022;SDS011;10172;42.054;24.546;2022-09-14T08:36:15;7.63;;;3.03;;
20022;SDS011;10172;42.054;24.546;2022-09-14T08:38:42;2.45;;;1.30;;
20022;SDS011;10172;42.054;24.546;2022-09-14T08:43:42;1.10;;;0.80;;
20022;SDS011;10172;42.054;24.546;2022-09-14T08:46:11;1.85;;;1.17;;
20022;SDS011;10172;42.054;24.546;2022-09-14T08:48:48;3.75;;;1.00;;
20022;SDS011;10172;42.054;24.546;2022-09-14T08:51:13;0.68;;;0.60;;
20022;SDS011;10172;42.054;24.546;2022-09-14T08:53:40;1.27;;;0.60;;
20022;SDS011;10172;42.054;24.546;2022-09-14T08:59:10;1.35;;;0.40;;
20022;SDS011;10172;42.054;24.546;2022-09-14T09:02:29;0.50;;;0.40;;
20022;SDS011;10172;42.054;24.546;2022-09-14T09:07:28;1.85;;;0.57;;
20022;SDS011;10172;42.054;24.546;2022-09-14T09:10:01;0.95;;;0.70;;
20022;SDS011;10172;42.054;24.546;2022-09-14T09:12:33;0.57;;;0.43;;
20022;SDS011;10172;42.054;24.546;2022-09-14T09:15:13;1.13;;;0.70;;
20022;SDS011;10172;42.054;24.546;2022-09-14T09:17:41;1.35;;;0.43;;
20022;SDS011;10172;42.054;24.546;2022-09-14T09:22:43;2.45;;;0.82;;
20022;SDS011;10172;42.054;24.546;2022-09-14T09:25:21;0.40;;;0.40;;
20022;SDS011;10172;42.054;24.546;2022-09-14T09:28:01;1.08;;;0.50;;
20022;SDS011;10172;42.054;24.546;2022-09-14T09:30:34;0.60;;;0.45;;
20022;SDS011;10172;42.054;24.546;2022-09-14T09:33:02;2.90;;;0.70;;
20022;SDS011;10172;42.054;24.546;2022-09-14T09:35:28;0.80;;;0.47;;
20022;SDS011;10172;42.054;24.546;2022-09-14T09:37:54;0.40;;;0.40;;
20022;SDS011;10172;42.054;24.546;2022-09-14T09:40:33;0.50;;;0.40;;
20022;SDS011;10172;42.054;24.546;2022-09-14T09:43:10;2.60;;;0.50;;
20022;SDS011;10172;42.054;24.546;2022-09-14T09:45:54;0.52;;;0.32;;
20022;SDS011;10172;42.054;24.546;2022-09-14T09:48:38;1.48;;;0.40;;
20022;SDS011;10172;42.054;24.546;2022-09-14T09:51:10;0.70;;;0.45;;
20022;SDS011;10172;42.054;24.546;2022-09-14T09:53:47;0.35;;;0.30;;
20022;SDS011;10172;42.054;24.546;2022-09-14T09:56:27;10.50;;;0.90;;
20022;SDS011;10172;42.054;24.546;2022-09-14T09:58:56;2.80;;;0.80;;
20022;SDS011;10172;42.054;24.546;2022-09-14T10:06:47;1.42;;;0.70;;
20022;SDS011;10172;42.054;24.546;2022-09-14T10:09:19;0.80;;;0.50;;
20022;SDS011;10172;42.054;24.546;2022-09-14T10:11:47;1.02;;;0.80;;
20022;SDS011;10172;42.054;24.546;2022-09-14T10:14:27;2.03;;;0.98;;
20022;SDS011;10172;42.054;24.546;2022-09-14T10:17:16;2.83;;;1.10;;
20022;SDS011;10172;42.054;24.546;2022-09-14T10:19:47;0.57;;;0.43;;
20022;SDS011;10172;42.054;24.546;2022-09-14T10:27:47;0.60;;;0.50;;
20022;SDS011;10172;42.054;24.546;2022-09-14T10:30:17;0.43;;;0.40;;
20022;SDS011;10172;42.054;24.546;2022-09-14T10:33:05;0.63;;;0.50;;
20022;SDS011;10172;42.054;24.546;2022-09-14T10:35:47;1.20;;;0.65;;
20022;SDS011;10172;42.054;24.546;2022-09-14T10:38:26;2.90;;;1.52;;
20022;SDS011;10172;42.054;24.546;2022-09-14T10:44:00;0.95;;;0.60;;
20022;SDS011;10172;42.054;24.546;2022-09-14T10:57:53;0.70;;;0.50;;
20022;SDS011;10172;42.054;24.546;2022-09-14T11:00:22;1.95;;;0.75;;
20022;SDS011;10172;42.054;24.546;2022-09-14T11:14:12;1.58;;;0.63;;
20022;SDS011;10172;42.054;24.546;2022-09-14T11:21:59;3.92;;;0.95;;
20022;SDS011;10172;42.054;24.546;2022-09-14T11:29:51;0.80;;;0.55;;
20022;SDS011;10172;42.054;24.546;2022-09-14T11:33:10;0.70;;;0.60;;
20022;SDS011;10172;42.054;24.546;2022-09-14T11:38:35;2.95;;;1.10;;
20022;SDS011;10172;42.054;24.546;2022-09-14T11:41:23;1.58;;;0.80;;
20022;SDS011;10172;42.054;24.546;2022-09-14T11:44:02;1.00;;;0.57;;
20022;SDS011;10172;42.054;24.546;2022-09-14T11:49:30;1.23;;;0.80;;
20022;SDS011;10172;42.054;24.546;2022-09-14T11:52:20;1.10;;;0.68;;
20022;SDS011;10172;42.054;24.546;2022-09-14T11:54:47;1.73;;;0.90;;
20022;SDS011;10172;42.054;24.546;2022-09-14T11:57:27;1.52;;;0.85;;
20022;SDS011;10172;42.054;24.546;2022-09-14T11:59:56;0.88;;;0.65;;
20022;SDS011;10172;42.054;24.546;2022-09-14T12:12:37;0.75;;;0.57;;
20022;SDS011;10172;42.054;24.546;2022-09-14T12:18:33;0.85;;;0.50;;
20022;SDS011;10172;42.054;24.546;2022-09-14T12:20:47;1.92;;;0.80;;
20022;SDS011;10172;42.054;24.546;2022-09-14T12:23:29;0.80;;;0.80;;
20022;SDS011;10172;42.054;24.546;2022-09-14T12:36:06;1.13;;;0.77;;
20022;SDS011;10172;42.054;24.546;2022-09-14T13:01:46;0.60;;;0.50;;
20022;SDS011;10172;42.054;24.546;2022-09-14T13:04:29;3.17;;;0.75;;
20022;SDS011;10172;42.054;24.546;2022-09-14T13:06:58;1.30;;;0.70;;
20022;SDS011;10172;42.054;24.546;2022-09-14T13:09:27;0.93;;;0.52;;
20022;SDS011;10172;42.054;24.546;2022-09-14T13:14:30;0.75;;;0.60;;
20022;SDS011;10172;42.054;24.546;2022-09-14T13:17:01;1.23;;;0.50;;
20022;SDS011;10172;42.054;24.546;2022-09-14T13:19:30;0.90;;;0.60;;
20022;SDS011;10172;42.054;24.546;2022-09-14T13:21:58;0.63;;;0.40;;
20022;SDS011;10172;42.054;24.546;2022-09-14T13:24:29;0.95;;;0.70;;
20022;SDS011;10172;42.054;24.546;2022-09-14T13:27:00;1.58;;;0.65;;
20022;SDS011;10172;42.054;24.546;2022-09-14T13:29:27;0.70;;;0.47;;
20022;SDS011;10172;42.054;24.546;2022-09-14T13:31:55;1.02;;;0.50;;
20022;SDS011;10172;42.054;24.546;2022-09-14T13:34:26;0.55;;;0.50;;
20022;SDS011;10172;42.054;24.546;2022-09-14T13:36:55;1.13;;;0.60;;
20022;SDS011;10172;42.054;24.546;2022-09-14T13:41:49;0.73;;;0.45;;
20022;SDS011;10172;42.054;24.546;2022-09-14T13:44:15;0.85;;;0.70;;
20022;SDS011;10172;42.054;24.546;2022-09-14T13:46:41;1.63;;;0.60;;
20022;SDS011;10172;42.054;24.546;2022-09-14T13:49:07;1.33;;;0.63;;
20022;SDS011;10172;42.054;24.546;2022-09-14T13:51:33;2.22;;;0.70;;
20022;SDS011;10172;42.054;24.546;2022-09-14T13:54:15;1.65;;;0.80;;
20022;SDS011;10172;42.054;24.546;2022-09-14T14:02:37;0.60;;;0.60;;
20022;SDS011;10172;42.054;24.546;2022-09-14T14:05:23;0.90;;;0.70;;
20022;SDS011;10172;42.054;24.546;2022-09-14T14:07:52;1.83;;;0.77;;
20022;SDS011;10172;42.054;24.546;2022-09-14T14:10:21;0.93;;;0.60;;
20022;SDS011;10172;42.054;24.546;2022-09-14T14:13:02;1.75;;;0.70;;
20022;SDS011;10172;42.054;24.546;2022-09-14T14:15:41;0.90;;;0.60;;
20022;SDS011;10172;42.054;24.546;2022-09-14T14:21:04;0.73;;;0.50;;
20022;SDS011;10172;42.054;24.546;2022-09-14T14:23:38;0.57;;;0.50;;
20022;SDS011;10172;42.054;24.546;2022-09-14T14:26:08;1.70;;;0.80;;
20022;SDS011;10172;42.054;24.546;2022-09-14T14:28:37;1.23;;;0.75;;
20022;SDS011;10172;42.054;24.546;2022-09-14T14:31:05;2.90;;;0.93;;
20022;SDS011;10172;42.054;24.546;2022-09-14T14:33:33;1.10;;;0.70;;
20022;SDS011;10172;42.054;24.546;2022-09-14T14:36:01;0.95;;;0.65;;
20022;SDS011;10172;42.054;24.546;2022-09-14T14:38:33;1.02;;;0.70;;
20022;SDS011;10172;42.054;24.546;2022-09-14T14:40:59;1.52;;;0.80;;
20022;SDS011;10172;42.054;24.546;2022-09-14T14:43:25;1.00;;;0.60;;
20022;SDS011;10172;42.054;24.546;2022-09-14T14:45:58;0.82;;;0.55;;
20022;SDS011;10172;42.054;24.546;2022-09-14T14:48:25;1.45;;;0.80;;
20022;SDS011;10172;42.054;24.546;2022-09-14T14:50:52;1.30;;;0.70;;
20022;SDS011;10172;42.054;24.546;2022-09-14T14:53:19;2.10;;;0.85;;
20022;SDS011;10172;42.054;24.546;2022-09-14T14:55:46;1.20;;;0.88;;
20022;SDS011;10172;42.054;24.546;2022-09-14T14:58:16;1.38;;;0.60;;
20022;SDS011;10172;42.054;24.546;2022-09-14T15:00:42;1.30;;;0.50;;
20022;SDS011;10172;42.054;24.546;2022-09-14T15:03:08;0.80;;;0.60;;
20022;SDS011;10172;42.054;24.546;2022-09-14T15:05:34;3.03;;;0.82;;
20022;SDS011;10172;42.054;24.546;2022-09-14T15:08:04;1.65;;;0.70;;
20022;SDS011;10172;42.054;24.546;2022-09-14T15:10:29;0.88;;;0.73;;
20022;SDS011;10172;42.054;24.546;2022-09-14T15:12:55;3.58;;;1.15;;
20022;SDS011;10172;42.054;24.546;2022-09-14T15:15:21;3.13;;;1.10;;
20022;SDS011;10172;42.054;24.546;2022-09-14T15:17:49;0.93;;;0.57;;
20022;SDS011;10172;42.054;24.546;2022-09-14T15:20:15;1.90;;;0.80;;
20022;SDS011;10172;42.054;24.546;2022-09-14T15:22:42;1.20;;;0.65;;
20022;SDS011;10172;42.054;24.546;2022-09-14T15:25:08;2.17;;;0.82;;
20022;SDS011;10172;42.054;24.546;2022-09-14T15:27:34;1.63;;;0.65;;
20022;SDS011;10172;42.054;24.546;2022-09-14T15:30:00;1.48;;;0.80;;
20022;SDS011;10172;42.054;24.546;2022-09-14T15:32:26;0.95;;;0.57;;
20022;SDS011;10172;42.054;24.546;2022-09-14T15:34:52;4.45;;;0.60;;
20022;SDS011;10172;42.054;24.546;2022-09-14T15:37:18;0.77;;;0.52;;
20022;SDS011;10172;42.054;24.546;2022-09-14T15:39:44;0.73;;;0.50;;
20022;SDS011;10172;42.054;24.546;2022-09-14T15:42:11;1.02;;;0.63;;
20022;SDS011;10172;42.054;24.546;2022-09-14T15:44:37;1.08;;;0.60;;
20022;SDS011;10172;42.054;24.546;2022-09-14T15:47:02;5.40;;;1.05;;
20022;SDS011;10172;42.054;24.546;2022-09-14T15:49:28;0.98;;;0.52;;
20022;SDS011;10172;42.054;24.546;2022-09-14T15:51:54;1.25;;;0.57;;
20022;SDS011;10172;42.054;24.546;2022-09-14T15:54:22;0.75;;;0.57;;
20022;SDS011;10172;42.054;24.546;2022-09-14T15:56:49;0.68;;;0.38;;
20022;SDS011;10172;42.054;24.546;2022-09-14T15:59:16;1.42;;;0.80;;
20022;SDS011;10172;42.054;24.546;2022-09-14T16:01:42;1.33;;;0.70;;
20022;SDS011;10172;42.054;24.546;2022-09-14T16:04:08;2.28;;;0.57;;
20022;SDS011;10172;42.054;24.546;2022-09-14T16:06:33;1.40;;;0.55;;
20022;SDS011;10172;42.054;24.546;2022-09-14T16:09:00;0.90;;;0.60;;
20022;SDS011;10172;42.054;24.546;2022-09-14T16:11:26;1.40;;;0.70;;
20022;SDS011;10172;42.054;24.546;2022-09-14T16:13:52;0.90;;;0.60;;
20022;SDS011;10172;42.054;24.546;2022-09-14T16:16:19;1.48;;;0.60;;
20022;SDS011;10172;42.054;24.546;2022-09-14T16:18:45;0.77;;;0.68;;
20022;SDS011;10172;42.054;24.546;2022-09-14T16:21:16;1.70;;;0.80;;
20022;SDS011;10172;42.054;24.546;2022-09-14T16:23:52;1.23;;;0.70;;
20022;SDS011;10172;42.054;24.546;2022-09-14T16:26:20;1.15;;;0.70;;
20022;SDS011;10172;42.054;24.546;2022-09-14T16:28:47;0.75;;;0.50;;
20022;SDS011;10172;42.054;24.546;2022-09-14T16:31:15;1.02;;;0.85;;
20022;SDS011;10172;42.054;24.546;2022-09-14T16:33:44;2.58;;;0.80;;
20022;SDS011;10172;42.054;24.546;2022-09-14T16:36:13;1.52;;;0.70;;
20022;SDS011;10172;42.054;24.546;2022-09-14T16:38:41;1.02;;;0.47;;
20022;SDS011;10172;42.054;24.546;2022-09-14T16:41:07;0.88;;;0.55;;
20022;SDS011;10172;42.054;24.546;2022-09-14T16:43:35;2.83;;;0.90;;
20022;SDS011;10172;42.054;24.546;2022-09-14T16:46:04;1.35;;;0.90;;
20022;SDS011;10172;42.054;24.546;2022-09-14T16:48:32;0.95;;;0.73;;
20022;SDS011;10172;42.054;24.546;2022-09-14T16:50:59;1.10;;;0.80;;
20022;SDS011;10172;42.054;24.546;2022-09-14T16:53:29;2.17;;;0.93;;
20022;SDS011;10172;42.054;24.546;2022-09-14T16:56:03;3.28;;;0.52;;
20022;SDS011;10172;42.054;24.546;2022-09-14T16:58:33;1.15;;;0.73;;
20022;SDS011;10172;42.054;24.546;2022-09-14T17:01:04;1.45;;;0.60;;
20022;SDS011;10172;42.054;24.546;2022-09-14T17:03:31;0.70;;;0.70;;
20022;SDS011;10172;42.054;24.546;2022-09-14T17:06:04;0.60;;;0.60;;
20022;SDS011;10172;42.054;24.546;2022-09-14T17:08:34;1.05;;;0.68;;
20022;SDS011;10172;42.054;24.546;2022-09-14T17:11:01;1.55;;;0.80;;
20022;SDS011;10172;42.054;24.546;2022-09-14T17:13:28;2.42;;;1.08;;
20022;SDS011;10172;42.054;24.546;2022-09-14T17:16:01;1.02;;;0.60;;
20022;SDS011;10172;42.054;24.546;2022-09-14T17:18:28;0.88;;;0.65;;
20022;SDS011;10172;42.054;24.546;2022-09-14T17:20:54;2.20;;;0.75;;
20022;SDS011;10172;42.054;24.546;2022-09-14T17:23:24;1.83;;;0.75;;
20022;SDS011;10172;42.054;24.546;2022-09-14T17:25:50;1.35;;;0.93;;